sensor_id;sensor_type;location;lat;lon;timestamp;pressure;altitude;pressure_sealevel;temperature;humidity
5380;BME280;2713;42.680;23.310;2023-03-23T00:01:24;95049.94;;;10.66;75.03
5380;BME280;2713;42.680;23.310;2023-03-23T00:03:53;95050.28;;;10.63;74.49
5380;BME280;2713;42.680;23.310;2023-03-23T00:06:25;95056.47;;;10.77;74.18
5380;BME280;2713;42.680;23.310;2023-03-23T00:08:54;95048.13;;;10.52;74.74
5380;BME280;2713;42.680;23.310;2023-03-23T00:11:27;95033.19;;;10.54;74.51
5380;BME280;2713;42.680;23.310;2023-03-23T00:13:56;95049.03;;;10.74;74.55
5380;BME280;2713;42.680;23.310;2023-03-23T00:16:27;95051.00;;;10.87;74.37
5380;BME280;2713;42.680;23.310;2023-03-23T00:18:57;95054.47;;;10.94;73.85
5380;BME280;2713;42.680;23.310;2023-03-23T00:21:27;95060.41;;;10.88;74.13
5380;BME280;2713;42.680;23.310;2023-03-23T00:24:02;95058.19;;;10.70;73.87
5380;BME280;2713;42.680;23.310;2023-03-23T00:26:29;95056.75;;;10.67;74.21
5380;BME280;2713;42.680;23.310;2023-03-23T00:29:00;95051.81;;;10.73;73.48
5380;BME280;2713;42.680;23.310;2023-03-23T00:31:28;95061.50;;;10.79;73.77
5380;BME280;2713;42.680;23.310;2023-03-23T00:33:59;95063.81;;;10.59;74.55
5380;BME280;2713;42.680;23.310;2023-03-23T00:36:31;95070.38;;;10.69;73.67
5380;BME280;2713;42.680;23.310;2023-03-23T00:39:00;95071.78;;;10.72;73.34
5380;BME280;2713;42.680;23.310;2023-03-23T00:41:28;95076.13;;;10.65;73.51
5380;BME280;2713;42.680;23.310;2023-03-23T00:43:55;95070.81;;;10.58;74.21
5380;BME280;2713;42.680;23.310;2023-03-23T00:46:23;95069.22;;;10.57;73.83
5380;BME280;2713;42.680;23.310;2023-03-23T00:48:50;95072.06;;;10.62;74.02
5380;BME280;2713;42.680;23.310;2023-03-23T00:51:17;95081.47;;;10.63;73.84
5380;BME280;2713;42.680;23.310;2023-03-23T00:53:46;95077.44;;;10.46;74.15
5380;BME280;2713;42.680;23.310;2023-03-23T00:56:13;95083.81;;;10.44;75.24
5380;BME280;2713;42.680;23.310;2023-03-23T00:58:40;95079.19;;;10.31;75.82
5380;BME280;2713;42.680;23.310;2023-03-23T01:01:07;95078.75;;;10.28;77.22
5380;BME280;2713;42.680;23.310;2023-03-23T01:03:34;95088.56;;;10.17;77.86
5380;BME280;2713;42.680;23.310;2023-03-23T01:06:06;95083.91;;;10.13;78.63
5380;BME280;2713;42.680;23.310;2023-03-23T01:08:38;95082.97;;;10.06;79.27
5380;BME280;2713;42.680;23.310;2023-03-23T01:11:13;95086.19;;;10.08;78.94
5380;BME280;2713;42.680;23.310;2023-03-23T01:13:41;95083.75;;;10.14;78.51
5380;BME280;2713;42.680;23.310;2023-03-23T01:16:09;95076.34;;;10.26;77.53
5380;BME280;2713;42.680;23.310;2023-03-23T01:18:36;95074.38;;;10.28;77.32
5380;BME280;2713;42.680;23.310;2023-03-23T01:21:04;95047.97;;;10.02;78.05
5380;BME280;2713;42.680;23.310;2023-03-23T01:23:31;95079.59;;;10.43;77.32
5380;BME280;2713;42.680;23.310;2023-03-23T01:26:03;95063.47;;;10.47;77.11
5380;BME280;2713;42.680;23.310;2023-03-23T01:28:31;95078.16;;;10.55;76.61
5380;BME280;2713;42.680;23.310;2023-03-23T01:31:01;95071.63;;;10.44;76.37
5380;BME280;2713;42.680;23.310;2023-03-23T01:33:28;95055.22;;;10.06;77.57
5380;BME280;2713;42.680;23.310;2023-03-23T01:35:55;95068.38;;;10.05;77.45
5380;BME280;2713;42.680;23.310;2023-03-23T01:38:22;95069.28;;;10.12;77.10
5380;BME280;2713;42.680;23.310;2023-03-23T01:40:49;95068.47;;;10.11;77.17
5380;BME280;2713;42.680;23.310;2023-03-23T01:43:16;95070.09;;;10.12;77.13
5380;BME280;2713;42.680;23.310;2023-03-23T01:45:45;95056.00;;;10.30;76.36
5380;BME280;2713;42.680;23.310;2023-03-23T01:48:15;95053.06;;;10.33;75.84
5380;BME280;2713;42.680;23.310;2023-03-23T01:50:51;95054.91;;;10.24;76.41
5380;BME280;2713;42.680;23.310;2023-03-23T01:53:22;95057.47;;;10.09;76.79
5380;BME280;2713;42.680;23.310;2023-03-23T01:55:52;95055.00;;;10.16;77.01
5380;BME280;2713;42.680;23.310;2023-03-23T01:58:25;95049.03;;;10.30;76.62
5380;BME280;2713;42.680;23.310;2023-03-23T02:00:57;95056.72;;;10.38;76.13
5380;BME280;2713;42.680;23.310;2023-03-23T02:03:27;95051.97;;;10.42;75.78
5380;BME280;2713;42.680;23.310;2023-03-23T02:05:54;95050.38;;;10.41;76.26
5380;BME280;2713;42.680;23.310;2023-03-23T02:08:37;95047.22;;;10.45;75.63
5380;BME280;2713;42.680;23.310;2023-03-23T02:11:12;95048.69;;;10.48;75.67
5380;BME280;2713;42.680;23.310;2023-03-23T02:13:39;95051.63;;;10.59;75.20
5380;BME280;2713;42.680;23.310;2023-03-23T02:16:14;95048.06;;;10.60;75.44
5380;BME280;2713;42.680;23.310;2023-03-23T02:18:51;95050.00;;;10.58;75.49
5380;BME280;2713;42.680;23.310;2023-03-23T02:21:49;95050.28;;;10.34;75.45
5380;BME280;2713;42.680;23.310;2023-03-23T02:24:33;95051.72;;;10.37;75.71
5380;BME280;2713;42.680;23.310;2023-03-23T02:27:08;95047.88;;;10.47;75.70
5380;BME280;2713;42.680;23.310;2023-03-23T02:29:51;95048.84;;;10.46;75.81
5380;BME280;2713;42.680;23.310;2023-03-23T02:32:45;95055.81;;;10.31;75.97
5380;BME280;2713;42.680;23.310;2023-03-23T02:35:24;95048.25;;;10.44;75.79
5380;BME280;2713;42.680;23.310;2023-03-23T02:37:58;95054.56;;;10.42;75.48
5380;BME280;2713;42.680;23.310;2023-03-23T02:40:30;95057.97;;;10.28;75.88
5380;BME280;2713;42.680;23.310;2023-03-23T02:43:01;95054.13;;;10.38;75.91
5380;BME280;2713;42.680;23.310;2023-03-23T02:45:30;95058.97;;;10.41;76.06
5380;BME280;2713;42.680;23.310;2023-03-23T02:48:01;95059.97;;;10.40;75.85
5380;BME280;2713;42.680;23.310;2023-03-23T02:50:31;95065.06;;;10.48;75.45
5380;BME280;2713;42.680;23.310;2023-03-23T02:53:04;95070.16;;;10.42;75.40
5380;BME280;2713;42.680;23.310;2023-03-23T02:55:34;95059.41;;;10.30;75.82
5380;BME280;2713;42.680;23.310;2023-03-23T02:58:10;95076.19;;;10.42;75.15
5380;BME280;2713;42.680;23.310;2023-03-23T03:00:39;95074.00;;;10.31;75.63
5380;BME280;2713;42.680;23.310;2023-03-23T03:03:12;95080.81;;;10.32;75.13
5380;BME280;2713;42.680;23.310;2023-03-23T03:05:44;95086.09;;;10.01;75.61
5380;BME280;2713;42.680;23.310;2023-03-23T03:08:19;95088.63;;;10.09;75.72
5380;BME280;2713;42.680;23.310;2023-03-23T03:10:54;95087.63;;;10.10;75.99
5380;BME280;2713;42.680;23.310;2023-03-23T03:13:37;95102.75;;;10.07;76.48
5380;BME280;2713;42.680;23.310;2023-03-23T03:16:12;95098.91;;;10.03;76.83
5380;BME280;2713;42.680;23.310;2023-03-23T03:18:45;95097.53;;;10.15;75.75
5380;BME280;2713;42.680;23.310;2023-03-23T03:21:16;95105.25;;;10.00;76.14
5380;BME280;2713;42.680;23.310;2023-03-23T03:23:47;95093.22;;;9.85;76.79
5380;BME280;2713;42.680;23.310;2023-03-23T03:26:16;95104.09;;;9.57;76.99
5380;BME280;2713;42.680;23.310;2023-03-23T03:28:54;95105.19;;;9.40;77.80
5380;BME280;2713;42.680;23.310;2023-03-23T03:31:23;95099.97;;;9.18;79.03
5380;BME280;2713;42.680;23.310;2023-03-23T03:33:53;95108.22;;;9.21;78.61
5380;BME280;2713;42.680;23.310;2023-03-23T03:36:26;95111.53;;;8.99;79.24
5380;BME280;2713;42.680;23.310;2023-03-23T03:39:01;95106.94;;;8.70;80.39
5380;BME280;2713;42.680;23.310;2023-03-23T03:41:32;95103.81;;;8.83;80.22
5380;BME280;2713;42.680;23.310;2023-03-23T03:43:59;95118.28;;;9.08;78.81
5380;BME280;2713;42.680;23.310;2023-03-23T03:46:26;95105.44;;;9.23;78.40
5380;BME280;2713;42.680;23.310;2023-03-23T03:48:56;95107.44;;;9.43;77.36
5380;BME280;2713;42.680;23.310;2023-03-23T03:51:25;95100.81;;;9.41;77.26
5380;BME280;2713;42.680;23.310;2023-03-23T03:53:53;95099.03;;;9.41;77.04
5380;BME280;2713;42.680;23.310;2023-03-23T03:56:21;95099.88;;;9.56;76.07
5380;BME280;2713;42.680;23.310;2023-03-23T03:59:00;95098.22;;;9.63;75.75
5380;BME280;2713;42.680;23.310;2023-03-23T04:01:44;95100.00;;;9.63;76.03
5380;BME280;2713;42.680;23.310;2023-03-23T04:04:10;95102.66;;;9.78;75.98
5380;BME280;2713;42.680;23.310;2023-03-23T04:06:41;95095.16;;;10.05;78.97
5380;BME280;2713;42.680;23.310;2023-03-23T04:09:08;95074.31;;;10.13;76.07
5380;BME280;2713;42.680;23.310;2023-03-23T04:11:35;95094.53;;;10.26;74.29
5380;BME280;2713;42.680;23.310;2023-03-23T04:14:22;95092.00;;;10.18;73.71
5380;BME280;2713;42.680;23.310;2023-03-23T04:16:53;95071.31;;;10.02;73.51
5380;BME280;2713;42.680;23.310;2023-03-23T04:19:22;95097.47;;;10.00;73.82
5380;BME280;2713;42.680;23.310;2023-03-23T04:21:51;95094.59;;;9.73;75.16
5380;BME280;2713;42.680;23.310;2023-03-23T04:24:18;95104.09;;;9.80;74.77
5380;BME280;2713;42.680;23.310;2023-03-23T04:26:47;95093.25;;;9.77;75.09
5380;BME280;2713;42.680;23.310;2023-03-23T04:29:22;95103.28;;;9.80;75.04
5380;BME280;2713;42.680;23.310;2023-03-23T04:32:18;95108.09;;;9.68;75.30
5380;BME280;2713;42.680;23.310;2023-03-23T04:34:50;95027.66;;;9.14;75.43
5380;BME280;2713;42.680;23.310;2023-03-23T04:37:20;95101.41;;;9.74;75.76
5380;BME280;2713;42.680;23.310;2023-03-23T04:39:51;95106.97;;;9.62;75.91
5380;BME280;2713;42.680;23.310;2023-03-23T04:42:27;95107.56;;;9.73;75.54
5380;BME280;2713;42.680;23.310;2023-03-23T04:45:15;95108.84;;;9.77;75.68
5380;BME280;2713;42.680;23.310;2023-03-23T04:47:48;95111.50;;;9.91;75.03
5380;BME280;2713;42.680;23.310;2023-03-23T04:50:26;95113.03;;;10.00;74.61
5380;BME280;2713;42.680;23.310;2023-03-23T04:52:55;95114.72;;;9.93;74.62
5380;BME280;2713;42.680;23.310;2023-03-23T04:55:22;95118.81;;;9.88;74.82
5380;BME280;2713;42.680;23.310;2023-03-23T04:57:54;95117.44;;;10.00;74.56
5380;BME280;2713;42.680;23.310;2023-03-23T05:00:51;95116.06;;;9.89;74.66
5380;BME280;2713;42.680;23.310;2023-03-23T05:03:20;95123.09;;;9.81;75.05
5380;BME280;2713;42.680;23.310;2023-03-23T05:05:49;95124.13;;;9.72;75.61
5380;BME280;2713;42.680;23.310;2023-03-23T05:08:20;95124.94;;;9.72;75.62
5380;BME280;2713;42.680;23.310;2023-03-23T05:10:51;95130.38;;;9.85;75.82
5380;BME280;2713;42.680;23.310;2023-03-23T05:13:20;95128.97;;;9.97;75.52
5380;BME280;2713;42.680;23.310;2023-03-23T05:15:50;95130.13;;;9.95;75.31
5380;BME280;2713;42.680;23.310;2023-03-23T05:18:17;95133.66;;;10.02;75.29
5380;BME280;2713;42.680;23.310;2023-03-23T05:20:45;95137.63;;;10.12;74.67
5380;BME280;2713;42.680;23.310;2023-03-23T05:23:16;95139.81;;;10.01;75.06
5380;BME280;2713;42.680;23.310;2023-03-23T05:25:54;95132.69;;;10.03;74.90
5380;BME280;2713;42.680;23.310;2023-03-23T05:28:22;95135.09;;;10.04;74.81
5380;BME280;2713;42.680;23.310;2023-03-23T05:31:09;95147.97;;;9.98;75.37
5380;BME280;2713;42.680;23.310;2023-03-23T05:33:36;95143.69;;;10.05;75.38
5380;BME280;2713;42.680;23.310;2023-03-23T05:36:29;95139.41;;;10.12;74.51
5380;BME280;2713;42.680;23.310;2023-03-23T05:39:08;95155.94;;;10.19;73.81
5380;BME280;2713;42.680;23.310;2023-03-23T05:42:01;95156.09;;;10.40;73.01
5380;BME280;2713;42.680;23.310;2023-03-23T05:44:39;95158.88;;;10.39;73.05
5380;BME280;2713;42.680;23.310;2023-03-23T05:47:07;95163.34;;;10.30;73.58
5380;BME280;2713;42.680;23.310;2023-03-23T05:49:37;95166.41;;;10.34;73.51
5380;BME280;2713;42.680;23.310;2023-03-23T05:52:07;95160.78;;;10.22;74.24
5380;BME280;2713;42.680;23.310;2023-03-23T05:54:34;95170.84;;;10.25;73.92
5380;BME280;2713;42.680;23.310;2023-03-23T05:57:03;95172.84;;;10.38;73.56
5380;BME280;2713;42.680;23.310;2023-03-23T05:59:54;95163.13;;;10.54;72.93
5380;BME280;2713;42.680;23.310;2023-03-23T06:02:23;95160.78;;;10.59;73.35
5380;BME280;2713;42.680;23.310;2023-03-23T06:04:53;95165.09;;;10.52;73.46
5380;BME280;2713;42.680;23.310;2023-03-23T06:07:29;95165.63;;;10.62;72.95
5380;BME280;2713;42.680;23.310;2023-03-23T06:09:59;95173.34;;;10.56;72.68
5380;BME280;2713;42.680;23.310;2023-03-23T06:12:54;95174.19;;;10.34;74.01
5380;BME280;2713;42.680;23.310;2023-03-23T06:15:32;95175.78;;;10.57;73.45
5380;BME280;2713;42.680;23.310;2023-03-23T06:17:59;95172.25;;;10.50;73.51
5380;BME280;2713;42.680;23.310;2023-03-23T06:20:33;95163.13;;;10.54;73.63
5380;BME280;2713;42.680;23.310;2023-03-23T06:23:13;95175.22;;;10.62;72.71
5380;BME280;2713;42.680;23.310;2023-03-23T06:25:41;95166.53;;;10.69;72.72
5380;BME280;2713;42.680;23.310;2023-03-23T06:28:11;95177.69;;;10.93;71.63
5380;BME280;2713;42.680;23.310;2023-03-23T06:30:41;95181.56;;;11.11;70.93
5380;BME280;2713;42.680;23.310;2023-03-23T06:33:09;95173.41;;;11.29;70.72
5380;BME280;2713;42.680;23.310;2023-03-23T06:35:55;95176.00;;;11.44;69.94
5380;BME280;2713;42.680;23.310;2023-03-23T06:38:41;95181.44;;;11.49;69.94
5380;BME280;2713;42.680;23.310;2023-03-23T06:41:08;95181.50;;;12.06;69.17
5380;BME280;2713;42.680;23.310;2023-03-23T06:43:37;95183.63;;;12.59;66.77
5380;BME280;2713;42.680;23.310;2023-03-23T06:46:12;95176.50;;;13.02;65.81
5380;BME280;2713;42.680;23.310;2023-03-23T06:48:39;95184.66;;;13.55;63.95
5380;BME280;2713;42.680;23.310;2023-03-23T06:51:08;95187.66;;;14.06;62.40
5380;BME280;2713;42.680;23.310;2023-03-23T06:53:37;95192.94;;;14.32;61.19
5380;BME280;2713;42.680;23.310;2023-03-23T06:56:08;95197.78;;;14.42;60.19
5380;BME280;2713;42.680;23.310;2023-03-23T06:58:37;95197.44;;;14.58;60.03
5380;BME280;2713;42.680;23.310;2023-03-23T07:01:04;95194.19;;;14.62;59.82
5380;BME280;2713;42.680;23.310;2023-03-23T07:03:38;95199.25;;;14.64;59.59
5380;BME280;2713;42.680;23.310;2023-03-23T07:06:07;95194.00;;;15.10;58.42
5380;BME280;2713;42.680;23.310;2023-03-23T07:08:44;95200.59;;;15.32;56.68
5380;BME280;2713;42.680;23.310;2023-03-23T07:11:15;95189.69;;;15.55;56.43
5380;BME280;2713;42.680;23.310;2023-03-23T07:13:44;95198.09;;;15.70;55.81
5380;BME280;2713;42.680;23.310;2023-03-23T07:16:12;95201.72;;;15.69;55.82
5380;BME280;2713;42.680;23.310;2023-03-23T07:18:39;95201.34;;;15.65;56.07
5380;BME280;2713;42.680;23.310;2023-03-23T07:21:06;95197.53;;;15.68;56.01
5380;BME280;2713;42.680;23.310;2023-03-23T07:23:34;95196.72;;;15.67;56.43
5380;BME280;2713;42.680;23.310;2023-03-23T07:26:04;95199.56;;;16.04;55.82
5380;BME280;2713;42.680;23.310;2023-03-23T07:28:59;95201.53;;;16.15;55.34
5380;BME280;2713;42.680;23.310;2023-03-23T07:31:32;95200.09;;;16.19;55.26
5380;BME280;2713;42.680;23.310;2023-03-23T07:33:59;95195.25;;;16.60;55.14
5380;BME280;2713;42.680;23.310;2023-03-23T07:36:36;95195.72;;;16.76;54.37
5380;BME280;2713;42.680;23.310;2023-03-23T07:39:06;95196.25;;;16.59;54.21
5380;BME280;2713;42.680;23.310;2023-03-23T07:41:33;95214.81;;;16.20;54.83
5380;BME280;2713;42.680;23.310;2023-03-23T07:44:15;95202.88;;;16.62;53.89
5380;BME280;2713;42.680;23.310;2023-03-23T07:46:43;95205.84;;;16.97;52.56
5380;BME280;2713;42.680;23.310;2023-03-23T07:49:15;95200.47;;;17.10;52.27
5380;BME280;2713;42.680;23.310;2023-03-23T07:51:48;95201.28;;;17.35;51.98
5380;BME280;2713;42.680;23.310;2023-03-23T07:54:16;95198.56;;;17.42;51.70
5380;BME280;2713;42.680;23.310;2023-03-23T07:56:53;95193.25;;;17.85;52.16
5380;BME280;2713;42.680;23.310;2023-03-23T07:59:25;95203.84;;;17.96;50.66
5380;BME280;2713;42.680;23.310;2023-03-23T08:01:53;95201.38;;;18.01;49.88
5380;BME280;2713;42.680;23.310;2023-03-23T08:04:26;95190.50;;;17.98;49.67
5380;BME280;2713;42.680;23.310;2023-03-23T08:07:16;95175.91;;;17.65;50.59
5380;BME280;2713;42.680;23.310;2023-03-23T08:10:06;95206.19;;;18.04;49.04
5380;BME280;2713;42.680;23.310;2023-03-23T08:12:55;95203.41;;;17.81;49.50
5380;BME280;2713;42.680;23.310;2023-03-23T08:15:27;95207.72;;;17.94;49.28
5380;BME280;2713;42.680;23.310;2023-03-23T08:18:04;95204.97;;;17.28;49.89
5380;BME280;2713;42.680;23.310;2023-03-23T08:20:49;95204.63;;;17.42;50.24
5380;BME280;2713;42.680;23.310;2023-03-23T08:23:48;95202.06;;;17.54;49.31
5380;BME280;2713;42.680;23.310;2023-03-23T08:26:29;95195.06;;;18.02;47.80
5380;BME280;2713;42.680;23.310;2023-03-23T08:29:23;95193.94;;;18.28;47.68
5380;BME280;2713;42.680;23.310;2023-03-23T08:32:05;95197.50;;;18.34;46.85
5380;BME280;2713;42.680;23.310;2023-03-23T08:34:32;95198.50;;;18.51;46.78
5380;BME280;2713;42.680;23.310;2023-03-23T08:37:01;95186.94;;;18.63;46.64
5380;BME280;2713;42.680;23.310;2023-03-23T08:39:51;95189.72;;;18.68;45.96
5380;BME280;2713;42.680;23.310;2023-03-23T08:42:40;95188.06;;;18.26;46.63
5380;BME280;2713;42.680;23.310;2023-03-23T08:45:26;95188.03;;;18.44;44.96
5380;BME280;2713;42.680;23.310;2023-03-23T08:48:11;95180.63;;;17.75;45.17
5380;BME280;2713;42.680;23.310;2023-03-23T08:50:58;95181.59;;;17.81;44.17
5380;BME280;2713;42.680;23.310;2023-03-23T08:53:27;95189.91;;;18.25;43.61
5380;BME280;2713;42.680;23.310;2023-03-23T08:56:15;95177.69;;;18.31;43.16
5380;BME280;2713;42.680;23.310;2023-03-23T08:58:45;95176.97;;;17.94;43.53
5380;BME280;2713;42.680;23.310;2023-03-23T09:01:21;95175.75;;;17.60;44.65
5380;BME280;2713;42.680;23.310;2023-03-23T09:04:03;95175.88;;;17.29;45.90
5380;BME280;2713;42.680;23.310;2023-03-23T09:06:48;95184.16;;;16.83;43.83
5380;BME280;2713;42.680;23.310;2023-03-23T09:09:15;95178.38;;;16.43;46.36
5380;BME280;2713;42.680;23.310;2023-03-23T09:11:42;95177.28;;;16.26;46.64
5380;BME280;2713;42.680;23.310;2023-03-23T09:14:08;95177.16;;;16.95;45.81
5380;BME280;2713;42.680;23.310;2023-03-23T09:16:35;95174.09;;;17.41;44.44
5380;BME280;2713;42.680;23.310;2023-03-23T09:19:03;95174.00;;;17.91;43.17
5380;BME280;2713;42.680;23.310;2023-03-23T09:21:31;95176.31;;;17.44;42.96
5380;BME280;2713;42.680;23.310;2023-03-23T09:23:58;95181.16;;;17.84;43.20
5380;BME280;2713;42.680;23.310;2023-03-23T09:26:24;95163.06;;;18.05;42.56
5380;BME280;2713;42.680;23.310;2023-03-23T09:28:51;95168.56;;;18.04;42.99
5380;BME280;2713;42.680;23.310;2023-03-23T09:31:19;95160.06;;;18.02;41.84
5380;BME280;2713;42.680;23.310;2023-03-23T09:33:48;95168.78;;;18.32;41.96
5380;BME280;2713;42.680;23.310;2023-03-23T09:36:19;95161.34;;;18.41;42.23
5380;BME280;2713;42.680;23.310;2023-03-23T09:38:46;95154.09;;;18.24;42.05
5380;BME280;2713;42.680;23.310;2023-03-23T09:41:37;95150.31;;;17.91;43.03
5380;BME280;2713;42.680;23.310;2023-03-23T09:44:17;95140.22;;;17.33;43.44
5380;BME280;2713;42.680;23.310;2023-03-23T09:46:54;95156.47;;;17.66;43.52
5380;BME280;2713;42.680;23.310;2023-03-23T09:49:27;95155.75;;;17.59;43.57
5380;BME280;2713;42.680;23.310;2023-03-23T09:51:59;95155.59;;;17.72;43.85
5380;BME280;2713;42.680;23.310;2023-03-23T09:54:30;95158.50;;;18.42;42.34
5380;BME280;2713;42.680;23.310;2023-03-23T09:56:59;95149.03;;;18.11;42.48
5380;BME280;2713;42.680;23.310;2023-03-23T09:59:31;95151.34;;;17.71;43.72
5380;BME280;2713;42.680;23.310;2023-03-23T10:02:12;95152.50;;;17.21;44.50
5380;BME280;2713;42.680;23.310;2023-03-23T10:04:43;95146.66;;;17.55;44.39
5380;BME280;2713;42.680;23.310;2023-03-23T10:07:13;95139.16;;;18.07;43.10
5380;BME280;2713;42.680;23.310;2023-03-23T10:09:42;95149.06;;;17.93;42.76
5380;BME280;2713;42.680;23.310;2023-03-23T10:12:19;95148.69;;;18.19;42.47
5380;BME280;2713;42.680;23.310;2023-03-23T10:15:04;95150.09;;;18.63;41.37
5380;BME280;2713;42.680;23.310;2023-03-23T10:17:41;95142.63;;;18.49;41.71
5380;BME280;2713;42.680;23.310;2023-03-23T10:20:22;95144.09;;;18.45;41.09
5380;BME280;2713;42.680;23.310;2023-03-23T10:23:00;95134.88;;;18.24;41.35
5380;BME280;2713;42.680;23.310;2023-03-23T10:25:31;95135.63;;;18.01;42.21
5380;BME280;2713;42.680;23.310;2023-03-23T10:28:03;95130.44;;;18.36;41.11
5380;BME280;2713;42.680;23.310;2023-03-23T10:30:33;95132.97;;;18.43;41.94
5380;BME280;2713;42.680;23.310;2023-03-23T10:33:08;95129.19;;;18.39;42.28
5380;BME280;2713;42.680;23.310;2023-03-23T10:35:44;95118.47;;;18.10;41.71
5380;BME280;2713;42.680;23.310;2023-03-23T10:38:17;95123.84;;;18.15;41.45
5380;BME280;2713;42.680;23.310;2023-03-23T10:40:50;95125.97;;;18.25;41.25
5380;BME280;2713;42.680;23.310;2023-03-23T10:43:17;95124.09;;;18.14;41.44
5380;BME280;2713;42.680;23.310;2023-03-23T10:45:49;95129.50;;;18.31;41.26
5380;BME280;2713;42.680;23.310;2023-03-23T10:48:23;95120.31;;;18.51;41.79
5380;BME280;2713;42.680;23.310;2023-03-23T10:50:55;95125.94;;;18.66;41.15
5380;BME280;2713;42.680;23.310;2023-03-23T10:53:28;95104.06;;;18.54;42.00
5380;BME280;2713;42.680;23.310;2023-03-23T10:55:58;95121.13;;;18.52;42.07
5380;BME280;2713;42.680;23.310;2023-03-23T10:58:27;95116.47;;;18.36;41.66
5380;BME280;2713;42.680;23.310;2023-03-23T11:00:56;95114.13;;;18.04;42.99
5380;BME280;2713;42.680;23.310;2023-03-23T11:03:28;95115.72;;;17.76;42.28
5380;BME280;2713;42.680;23.310;2023-03-23T11:06:00;95123.75;;;17.44;43.06
5380;BME280;2713;42.680;23.310;2023-03-23T11:08:34;95118.94;;;17.41;43.73
5380;BME280;2713;42.680;23.310;2023-03-23T11:11:10;95111.97;;;17.47;43.63
5380;BME280;2713;42.680;23.310;2023-03-23T11:13:43;95115.13;;;17.37;43.93
5380;BME280;2713;42.680;23.310;2023-03-23T11:16:22;95100.47;;;17.66;42.55
5380;BME280;2713;42.680;23.310;2023-03-23T11:18:49;95097.38;;;17.99;42.02
5380;BME280;2713;42.680;23.310;2023-03-23T11:21:20;95104.50;;;17.32;42.54
5380;BME280;2713;42.680;23.310;2023-03-23T11:23:51;95100.03;;;16.71;44.00
5380;BME280;2713;42.680;23.310;2023-03-23T11:26:22;95092.28;;;16.58;44.14
5380;BME280;2713;42.680;23.310;2023-03-23T11:28:53;95070.28;;;16.59;44.52
5380;BME280;2713;42.680;23.310;2023-03-23T11:31:23;95086.53;;;17.11;43.72
5380;BME280;2713;42.680;23.310;2023-03-23T11:33:54;95078.72;;;17.59;43.33
5380;BME280;2713;42.680;23.310;2023-03-23T11:36:29;95079.13;;;18.04;42.51
5380;BME280;2713;42.680;23.310;2023-03-23T11:38:58;95082.25;;;18.24;42.44
5380;BME280;2713;42.680;23.310;2023-03-23T11:41:31;95082.22;;;18.12;41.94
5380;BME280;2713;42.680;23.310;2023-03-23T11:44:07;95080.69;;;17.63;41.51
5380;BME280;2713;42.680;23.310;2023-03-23T11:46:48;95071.47;;;17.72;41.91
5380;BME280;2713;42.680;23.310;2023-03-23T11:49:28;95071.53;;;17.66;42.32
5380;BME280;2713;42.680;23.310;2023-03-23T11:52:02;95072.88;;;17.57;42.69
5380;BME280;2713;42.680;23.310;2023-03-23T11:54:34;95064.59;;;17.71;43.10
5380;BME280;2713;42.680;23.310;2023-03-23T11:57:06;95065.63;;;17.70;42.76
5380;BME280;2713;42.680;23.310;2023-03-23T11:59:35;95069.53;;;17.13;43.60
5380;BME280;2713;42.680;23.310;2023-03-23T12:02:31;95065.59;;;17.04;44.09
5380;BME280;2713;42.680;23.310;2023-03-23T12:05:18;95065.22;;;17.19;43.58
5380;BME280;2713;42.680;23.310;2023-03-23T12:07:54;95056.69;;;17.05;44.01
5380;BME280;2713;42.680;23.310;2023-03-23T12:10:33;95052.94;;;17.31;44.05
5380;BME280;2713;42.680;23.310;2023-03-23T12:13:13;95056.22;;;17.45;43.46
5380;BME280;2713;42.680;23.310;2023-03-23T12:15:54;95061.16;;;17.71;43.18
5380;BME280;2713;42.680;23.310;2023-03-23T12:18:32;95056.31;;;17.56;42.39
5380;BME280;2713;42.680;23.310;2023-03-23T12:21:08;95049.94;;;17.46;42.88
5380;BME280;2713;42.680;23.310;2023-03-23T12:23:48;95056.22;;;17.27;43.22
5380;BME280;2713;42.680;23.310;2023-03-23T12:26:22;95053.75;;;17.32;42.52
5380;BME280;2713;42.680;23.310;2023-03-23T12:29:23;95055.88;;;17.59;42.61
5380;BME280;2713;42.680;23.310;2023-03-23T12:31:59;95048.72;;;17.30;42.56
5380;BME280;2713;42.680;23.310;2023-03-23T12:34:39;95047.06;;;17.47;43.25
5380;BME280;2713;42.680;23.310;2023-03-23T12:37:29;95038.53;;;17.52;43.20
5380;BME280;2713;42.680;23.310;2023-03-23T12:40:09;95032.47;;;17.51;42.88
5380;BME280;2713;42.680;23.310;2023-03-23T12:42:54;95036.88;;;17.57;42.95
5380;BME280;2713;42.680;23.310;2023-03-23T12:45:40;95038.75;;;17.50;42.80
5380;BME280;2713;42.680;23.310;2023-03-23T12:48:11;95037.44;;;16.93;44.18
5380;BME280;2713;42.680;23.310;2023-03-23T12:50:43;95030.34;;;17.12;43.81
5380;BME280;2713;42.680;23.310;2023-03-23T12:53:16;95023.78;;;17.21;43.83
5380;BME280;2713;42.680;23.310;2023-03-23T12:55:47;95023.16;;;17.37;43.43
5380;BME280;2713;42.680;23.310;2023-03-23T12:58:21;95025.22;;;17.17;42.90
5380;BME280;2713;42.680;23.310;2023-03-23T13:00:55;95020.88;;;17.11;42.72
5380;BME280;2713;42.680;23.310;2023-03-23T13:03:27;95021.31;;;17.08;42.47
5380;BME280;2713;42.680;23.310;2023-03-23T13:06:03;95022.22;;;17.32;43.14
5380;BME280;2713;42.680;23.310;2023-03-23T13:08:35;95017.50;;;17.04;43.48
5380;BME280;2713;42.680;23.310;2023-03-23T13:11:05;95016.00;;;17.26;43.22
5380;BME280;2713;42.680;23.310;2023-03-23T13:13:45;95021.97;;;17.51;42.71
5380;BME280;2713;42.680;23.310;2023-03-23T13:16:19;95009.28;;;17.48;42.69
5380;BME280;2713;42.680;23.310;2023-03-23T13:19:03;95013.44;;;17.56;42.99
5380;BME280;2713;42.680;23.310;2023-03-23T13:21:38;95009.28;;;17.48;42.89
5380;BME280;2713;42.680;23.310;2023-03-23T13:24:10;94983.81;;;17.19;42.98
5380;BME280;2713;42.680;23.310;2023-03-23T13:26:40;95003.38;;;17.05;43.46
5380;BME280;2713;42.680;23.310;2023-03-23T13:29:13;95004.94;;;17.24;43.61
5380;BME280;2713;42.680;23.310;2023-03-23T13:31:41;95009.78;;;17.57;42.84
5380;BME280;2713;42.680;23.310;2023-03-23T13:34:16;95007.59;;;17.84;42.25
5380;BME280;2713;42.680;23.310;2023-03-23T13:36:52;94996.34;;;17.47;42.88
5380;BME280;2713;42.680;23.310;2023-03-23T13:39:21;95004.22;;;17.17;43.60
5380;BME280;2713;42.680;23.310;2023-03-23T13:42:01;95000.94;;;17.21;43.21
5380;BME280;2713;42.680;23.310;2023-03-23T13:44:42;94997.47;;;17.39;42.19
5380;BME280;2713;42.680;23.310;2023-03-23T13:47:21;94996.94;;;17.19;42.61